createdAt,value
2018-03-27T00:02:19.837Z,4.62
2018-03-27T00:04:47.302Z,4.43
2018-03-27T00:07:14.747Z,4.37
2018-03-27T00:09:42.251Z,4.41
2018-03-27T00:12:09.710Z,4.51
2018-03-27T00:14:37.149Z,4.51
2018-03-27T00:17:04.589Z,4.47
2018-03-27T00:19:32.081Z,4.25
2018-03-27T00:21:59.544Z,4.23
2018-03-27T00:24:26.987Z,4.34
2018-03-27T00:27:01.049Z,4.31
2018-03-27T00:29:40.390Z,4.13
2018-03-27T00:32:19.793Z,4.21
2018-03-27T00:34:58.990Z,4.17
2018-03-27T00:37:38.524Z,4.25
2018-03-27T00:40:17.622Z,4.25
2018-03-27T00:42:54.012Z,4.49
2018-03-27T00:45:21.453Z,4.25
2018-03-27T00:47:48.893Z,4.41
2018-03-27T00:50:16.348Z,4.33
2018-03-27T00:52:43.789Z,4.21
2018-03-27T00:55:11.239Z,4.17
2018-03-27T00:57:38.725Z,4.14
2018-03-27T01:00:06.168Z,4.15
2018-03-27T01:02:33.605Z,4.03
2018-03-27T01:05:06.665Z,4.15
2018-03-27T01:07:34.109Z,4.22
2018-03-27T01:10:01.551Z,4.21
2018-03-27T01:12:29.013Z,4.25
2018-03-27T01:14:56.461Z,4.14
2018-03-27T01:17:23.922Z,4.24
2018-03-27T01:19:51.531Z,4.26
2018-03-27T01:22:19.016Z,4.16
2018-03-27T01:24:46.461Z,4.02
2018-03-27T01:27:14.132Z,3.89
2018-03-27T01:29:41.570Z,3.87
2018-03-27T01:32:09.046Z,3.81
2018-03-27T01:34:36.721Z,3.89
2018-03-27T01:37:04.160Z,4.03
2018-03-27T01:39:31.596Z,3.82
2018-03-27T01:41:59.265Z,3.92
2018-03-27T01:44:26.718Z,3.67
2018-03-27T01:46:54.164Z,3.53
2018-03-27T01:49:21.645Z,3.57
2018-03-27T01:51:49.089Z,3.46
2018-03-27T01:54:16.530Z,3.44
2018-03-27T01:56:44.190Z,3.32
2018-03-27T01:59:11.625Z,3.34
2018-03-27T02:01:39.066Z,3.41
2018-03-27T02:04:06.537Z,3.39
2018-03-27T02:06:33.981Z,3.41
2018-03-27T02:09:01.449Z,3.34
2018-03-27T02:11:34.958Z,3.32
2018-03-27T02:14:08.011Z,3.24
2018-03-27T02:16:41.453Z,3.40
2018-03-27T02:19:14.608Z,3.35
2018-03-27T02:21:41.519Z,3.39
2018-03-27T02:24:08.977Z,3.45
2018-03-27T02:26:36.453Z,3.40
2018-03-27T02:29:04.142Z,3.17
2018-03-27T02:31:31.582Z,3.00
2018-03-27T02:33:59.025Z,2.81
2018-03-27T02:36:26.502Z,2.78
2018-03-27T02:38:53.942Z,2.91
2018-03-27T02:41:21.390Z,2.86
2018-03-27T02:43:48.934Z,2.43
2018-03-27T02:46:16.378Z,2.47
2018-03-27T02:48:43.826Z,2.50
2018-03-27T02:51:11.285Z,2.29
2018-03-27T02:53:38.769Z,2.11
2018-03-27T02:56:06.216Z,2.08
2018-03-27T02:58:33.978Z,2.01
2018-03-27T03:01:01.439Z,2.12
2018-03-27T03:03:28.889Z,2.02
2018-03-27T03:05:56.550Z,2.10
2018-03-27T03:08:24.015Z,1.96
2018-03-27T03:10:51.457Z,1.90
2018-03-27T03:13:19.101Z,2.04
2018-03-27T03:15:46.536Z,2.14
2018-03-27T03:18:13.987Z,2.02
2018-03-27T03:20:41.625Z,1.82
2018-03-27T03:23:09.067Z,1.88
2018-03-27T03:25:36.517Z,1.89
2018-03-27T03:28:04.085Z,2.00
2018-03-27T03:30:31.527Z,2.02
2018-03-27T03:32:58.974Z,2.07
2018-03-27T03:35:26.450Z,2.04
2018-03-27T03:37:53.914Z,2.20
2018-03-27T03:40:21.378Z,2.28
2018-03-27T03:42:48.977Z,2.35
2018-03-27T03:45:16.420Z,2.39
2018-03-27T03:47:43.877Z,2.44
2018-03-27T03:50:11.478Z,2.64
2018-03-27T03:52:38.929Z,2.66
2018-03-27T03:55:06.382Z,2.66
2018-03-27T03:57:34.077Z,2.74
2018-03-27T04:00:01.514Z,2.88
2018-03-27T04:02:28.954Z,2.99
2018-03-27T04:04:56.455Z,2.87
2018-03-27T04:07:23.930Z,2.84
2018-03-27T04:09:51.397Z,3.03
2018-03-27T04:12:19.001Z,3.05
2018-03-27T04:14:46.469Z,2.99
2018-03-27T04:17:13.931Z,2.98
2018-03-27T04:19:41.397Z,3.05
2018-03-27T04:22:08.849Z,3.12
2018-03-27T04:24:36.289Z,2.99
2018-03-27T04:27:03.757Z,3.19
2018-03-27T04:29:31.197Z,3.22
2018-03-27T04:31:58.862Z,3.13
2018-03-27T04:34:26.316Z,3.00
2018-03-27T04:36:53.787Z,2.73
2018-03-27T04:39:21.257Z,3.11
2018-03-27T04:41:48.742Z,3.17
2018-03-27T04:44:16.393Z,3.11
2018-03-27T04:46:43.837Z,3.23
2018-03-27T04:49:11.294Z,3.20
2018-03-27T04:51:38.761Z,3.28
2018-03-27T04:54:06.214Z,3.22
2018-03-27T04:56:33.829Z,3.23
2018-03-27T04:59:01.274Z,2.75
2018-03-27T05:01:28.733Z,3.03
2018-03-27T05:03:56.205Z,2.99
2018-03-27T05:06:23.655Z,3.10
2018-03-27T05:08:51.293Z,3.00
2018-03-27T05:11:18.828Z,2.88
2018-03-27T05:13:46.273Z,3.08
2018-03-27T05:16:13.738Z,3.30
2018-03-27T05:18:41.191Z,3.26
2018-03-27T05:21:08.994Z,3.26
2018-03-27T05:23:36.443Z,3.36
2018-03-27T05:26:03.885Z,3.40
2018-03-27T05:28:31.354Z,3.35
2018-03-27T05:30:58.798Z,3.30
2018-03-27T05:33:26.396Z,3.25
2018-03-27T05:35:53.837Z,3.33
2018-03-27T05:38:21.277Z,3.37
2018-03-27T05:40:48.746Z,3.45
2018-03-27T05:43:16.201Z,3.43
2018-03-27T05:45:43.845Z,3.50
2018-03-27T05:48:11.289Z,3.42
2018-03-27T05:50:38.745Z,3.44
2018-03-27T05:53:06.222Z,3.50
2018-03-27T05:55:33.669Z,3.50
2018-03-27T05:58:01.302Z,3.66
2018-03-27T06:00:28.751Z,3.84
2018-03-27T06:02:56.198Z,3.94
2018-03-27T06:05:23.666Z,4.03
2018-03-27T06:07:51.118Z,4.08
2018-03-27T06:10:18.759Z,4.12
2018-03-27T06:12:46.197Z,4.04
2018-03-27T06:15:13.642Z,4.17
2018-03-27T06:17:41.113Z,4.24
2018-03-27T06:20:08.565Z,4.17
2018-03-27T06:22:36.516Z,4.13
2018-03-27T06:25:03.965Z,4.22
2018-03-27T06:27:31.431Z,4.30
2018-03-27T06:29:58.913Z,4.18
2018-03-27T06:32:26.354Z,4.48
2018-03-27T06:34:53.929Z,4.52
2018-03-27T06:37:21.364Z,4.56
2018-03-27T06:39:48.806Z,4.56
2018-03-27T06:42:16.310Z,4.65
2018-03-27T06:44:43.757Z,4.76
2018-03-27T06:47:11.562Z,4.79
2018-03-27T06:49:39.025Z,4.91
2018-03-27T06:52:06.481Z,5.36
2018-03-27T06:54:33.965Z,5.45
2018-03-27T06:57:01.434Z,5.19
2018-03-27T06:59:28.908Z,5.28
2018-03-27T07:01:56.391Z,5.69
2018-03-27T07:04:23.832Z,5.85
2018-03-27T07:06:51.349Z,6.04
2018-03-27T07:09:18.764Z,6.15
2018-03-27T07:11:46.448Z,6.34
2018-03-27T07:14:13.881Z,6.24
2018-03-27T07:16:41.330Z,6.62
2018-03-27T07:19:08.840Z,6.47
2018-03-27T07:21:36.283Z,6.64
2018-03-27T07:24:04.077Z,6.74
2018-03-27T07:26:31.517Z,6.77
2018-03-27T07:28:58.965Z,6.52
2018-03-27T07:31:26.425Z,6.48
2018-03-27T07:33:53.869Z,6.84
2018-03-27T07:36:21.349Z,7.26
2018-03-27T07:38:48.797Z,7.37
2018-03-27T07:41:16.237Z,7.16
2018-03-27T07:43:43.697Z,7.21
2018-03-27T07:46:11.154Z,7.34
2018-03-27T07:48:38.634Z,7.83
2018-03-27T07:51:06.074Z,7.56
2018-03-27T07:53:33.514Z,7.55
2018-03-27T07:56:01.057Z,7.39
2018-03-27T07:58:28.505Z,7.59
2018-03-27T08:00:56.154Z,7.56
2018-03-27T08:03:23.587Z,7.49
2018-03-27T08:05:51.562Z,7.51
2018-03-27T08:08:19.053Z,7.62
2018-03-27T08:10:46.496Z,7.76
2018-03-27T08:13:14.364Z,7.77
2018-03-27T08:15:41.834Z,7.70
2018-03-27T08:18:09.278Z,7.72
2018-03-27T08:20:36.745Z,7.73
2018-03-27T08:23:04.196Z,8.25
2018-03-27T08:25:31.825Z,7.84
2018-03-27T08:27:59.290Z,8.12
2018-03-27T08:30:26.734Z,8.24
2018-03-27T08:32:54.203Z,8.28
2018-03-27T08:35:21.669Z,8.72
2018-03-27T08:37:49.391Z,8.64
2018-03-27T08:40:16.833Z,8.87
2018-03-27T08:42:44.286Z,8.36
2018-03-27T08:45:11.773Z,9.09
2018-03-27T08:47:39.236Z,9.16
2018-03-27T08:50:06.851Z,8.80
2018-03-27T08:52:34.306Z,9.20
2018-03-27T08:55:01.785Z,9.04
2018-03-27T08:57:29.257Z,9.15
2018-03-27T08:59:56.709Z,8.82
2018-03-27T09:02:24.225Z,9.11
2018-03-27T09:04:51.671Z,9.55
2018-03-27T09:07:19.119Z,9.42
2018-03-27T09:09:46.604Z,9.43
2018-03-27T09:12:14.053Z,9.89
2018-03-27T09:14:41.561Z,9.95
2018-03-27T09:17:09.071Z,10.00
2018-03-27T09:19:36.521Z,9.79
2018-03-27T09:22:04.012Z,10.06
2018-03-27T09:24:31.465Z,10.27
2018-03-27T09:26:59.181Z,10.10
2018-03-27T09:29:26.635Z,10.03
2018-03-27T09:31:54.082Z,9.89
2018-03-27T09:34:21.557Z,10.06
2018-03-27T09:36:49.018Z,10.02
2018-03-27T09:39:16.637Z,9.93
2018-03-27T09:41:44.086Z,10.06
2018-03-27T09:44:11.577Z,10.27
2018-03-27T09:46:39.055Z,10.58
2018-03-27T09:49:06.592Z,10.20
2018-03-27T09:51:34.189Z,10.20
2018-03-27T09:54:01.677Z,10.39
2018-03-27T09:56:29.129Z,10.43
2018-03-27T09:58:56.622Z,10.31
2018-03-27T10:01:33.997Z,10.09
2018-03-27T10:04:01.652Z,10.26
2018-03-27T10:06:29.143Z,10.36
2018-03-27T10:08:56.692Z,10.22
2018-03-27T10:11:24.125Z,10.10
2018-03-27T10:13:51.577Z,10.10
2018-03-27T10:16:19.060Z,10.03
2018-03-27T10:18:46.508Z,10.27
2018-03-27T10:21:14.005Z,10.32
2018-03-27T10:23:41.493Z,10.23
2018-03-27T10:26:08.944Z,10.54
2018-03-27T10:28:36.484Z,10.58
2018-03-27T10:31:03.971Z,10.70
2018-03-27T10:33:31.462Z,10.59
2018-03-27T10:35:58.950Z,10.61
2018-03-27T10:38:26.405Z,10.66
2018-03-27T10:40:53.878Z,10.47
2018-03-27T10:43:21.357Z,10.56
2018-03-27T10:45:48.849Z,10.39
2018-03-27T10:48:16.317Z,10.17
2018-03-27T10:50:43.806Z,10.52
2018-03-27T10:53:11.294Z,10.56
2018-03-27T10:55:38.775Z,10.22
2018-03-27T10:58:06.414Z,10.26
2018-03-27T11:00:33.871Z,10.10
2018-03-27T11:03:01.341Z,10.04
2018-03-27T11:05:28.841Z,10.04
2018-03-27T11:07:56.310Z,10.13
2018-03-27T11:10:24.193Z,10.28
2018-03-27T11:12:51.661Z,10.28
2018-03-27T11:15:19.139Z,10.34
2018-03-27T11:17:46.630Z,10.46
2018-03-27T11:20:14.084Z,10.48
2018-03-27T11:22:41.725Z,10.43
2018-03-27T11:25:09.177Z,10.67
2018-03-27T11:27:36.653Z,10.59
2018-03-27T11:30:04.137Z,10.74
2018-03-27T11:32:31.595Z,10.99
2018-03-27T11:34:59.185Z,11.17
2018-03-27T11:37:26.637Z,11.32
2018-03-27T11:39:54.093Z,11.38
2018-03-27T11:42:21.572Z,11.23
2018-03-27T11:44:49.021Z,11.37
2018-03-27T11:47:16.510Z,11.33
2018-03-27T11:49:43.964Z,11.41
2018-03-27T11:52:11.425Z,11.62
2018-03-27T11:54:38.915Z,12.05
2018-03-27T11:57:06.369Z,12.17
2018-03-27T11:59:34.161Z,12.51
2018-03-27T12:02:01.640Z,12.51
2018-03-27T12:04:29.121Z,12.50
2018-03-27T12:06:56.610Z,12.63
2018-03-27T12:09:24.067Z,13.26
2018-03-27T12:11:51.733Z,13.14
2018-03-27T12:14:19.209Z,13.13
2018-03-27T12:16:46.657Z,12.98
2018-03-27T12:19:14.140Z,12.85
2018-03-27T12:21:41.598Z,13.26
2018-03-27T12:24:09.183Z,13.53
2018-03-27T12:26:36.685Z,13.49
2018-03-27T12:29:04.138Z,13.47
2018-03-27T12:31:31.609Z,13.41
2018-03-27T12:33:59.069Z,13.35
2018-03-27T12:36:26.737Z,13.44
2018-03-27T12:38:54.194Z,13.33
2018-03-27T12:41:21.645Z,13.39
2018-03-27T12:43:49.198Z,13.51
2018-03-27T12:46:20.950Z,13.81
2018-03-27T12:48:49.101Z,13.54
2018-03-27T12:51:16.590Z,13.73
2018-03-27T12:53:44.040Z,13.46
2018-03-27T12:56:11.517Z,13.88
2018-03-27T12:58:38.972Z,14.08
2018-03-27T13:01:06.553Z,13.76
2018-03-27T13:03:34.001Z,13.61
2018-03-27T13:06:01.450Z,13.56
2018-03-27T13:08:28.945Z,13.42
2018-03-27T13:10:56.397Z,13.36
2018-03-27T13:13:24.001Z,12.94
2018-03-27T13:15:51.453Z,12.91
2018-03-27T13:18:18.905Z,12.67
2018-03-27T13:20:46.377Z,12.75
2018-03-27T13:23:13.826Z,12.45
2018-03-27T13:25:41.466Z,12.36
2018-03-27T13:28:08.941Z,12.00
2018-03-27T13:30:36.391Z,11.98
2018-03-27T13:33:03.861Z,12.10
2018-03-27T13:35:31.309Z,11.93
2018-03-27T13:37:58.811Z,11.87
2018-03-27T13:40:26.261Z,11.93
2018-03-27T13:42:53.729Z,11.62
2018-03-27T13:45:21.206Z,11.69
2018-03-27T13:47:48.653Z,11.66
2018-03-27T13:50:16.149Z,11.56
2018-03-27T13:52:43.622Z,11.51
2018-03-27T13:55:11.078Z,11.65
2018-03-27T13:57:38.560Z,11.62
2018-03-27T14:00:08.682Z,11.72
2018-03-27T14:02:36.162Z,11.80
2018-03-27T14:05:03.629Z,11.77
2018-03-27T14:07:31.081Z,11.90
2018-03-27T14:09:58.554Z,11.81
2018-03-27T14:12:26.008Z,11.99
2018-03-27T14:14:53.738Z,12.17
2018-03-27T14:17:22.102Z,12.17
2018-03-27T14:19:49.566Z,12.16
2018-03-27T14:22:17.057Z,12.34
2018-03-27T14:24:44.536Z,12.34
2018-03-27T14:27:12.206Z,12.28
2018-03-27T14:29:39.657Z,12.19
2018-03-27T14:32:07.133Z,11.80
2018-03-27T14:34:34.679Z,11.87
2018-03-27T14:37:02.164Z,11.94
2018-03-27T14:39:30.078Z,12.17
2018-03-27T14:41:57.538Z,12.18
2018-03-27T14:44:24.981Z,12.33
2018-03-27T14:46:52.523Z,12.25
2018-03-27T14:49:20.014Z,12.27
2018-03-27T14:51:47.819Z,12.52
2018-03-27T14:54:15.273Z,12.34
2018-03-27T14:56:42.726Z,11.98
2018-03-27T14:59:10.202Z,11.85
2018-03-27T15:01:37.664Z,11.96
2018-03-27T15:04:05.271Z,11.76
2018-03-27T15:06:32.726Z,11.30
2018-03-27T15:09:00.180Z,11.29
2018-03-27T15:11:27.661Z,11.25
2018-03-27T15:13:55.121Z,11.24
2018-03-27T15:16:22.913Z,11.34
2018-03-27T15:18:50.373Z,11.36
2018-03-27T15:21:17.836Z,11.15
2018-03-27T15:23:45.305Z,11.23
2018-03-27T15:26:12.756Z,11.11
2018-03-27T15:28:40.335Z,10.99
2018-03-27T15:31:08.007Z,11.20
2018-03-27T15:33:35.497Z,11.16
2018-03-27T15:36:02.950Z,11.47
2018-03-27T15:38:30.400Z,11.30
2018-03-27T15:40:57.880Z,11.19
2018-03-27T15:43:25.333Z,11.29
2018-03-27T15:45:52.787Z,11.41
2018-03-27T15:48:20.270Z,11.10
2018-03-27T15:50:47.736Z,11.00
2018-03-27T15:53:15.225Z,10.94
2018-03-27T15:55:42.753Z,10.77
2018-03-27T15:58:10.181Z,10.76
2018-03-27T16:00:37.655Z,10.56
2018-03-27T16:03:05.193Z,10.56
2018-03-27T16:05:32.678Z,10.58
2018-03-27T16:08:00.137Z,10.63
2018-03-27T16:10:27.637Z,10.58
2018-03-27T16:12:55.107Z,10.56
2018-03-27T16:15:22.581Z,10.52
2018-03-27T16:17:50.285Z,10.57
2018-03-27T16:20:17.733Z,10.58
2018-03-27T16:22:45.190Z,10.47
2018-03-27T16:25:12.670Z,10.35
2018-03-27T16:27:40.134Z,10.37
2018-03-27T16:30:07.666Z,10.57
2018-03-27T16:32:35.130Z,10.39
2018-03-27T16:35:02.582Z,10.43
2018-03-27T16:37:30.063Z,10.42
2018-03-27T16:39:57.553Z,10.28
2018-03-27T16:42:25.170Z,10.29
2018-03-27T16:44:52.638Z,10.43
2018-03-27T16:47:20.114Z,10.30
2018-03-27T16:49:47.602Z,10.34
2018-03-27T16:52:15.188Z,10.13
2018-03-27T16:54:42.721Z,10.21
2018-03-27T16:57:10.169Z,10.15
2018-03-27T16:59:37.629Z,10.01
2018-03-27T17:02:05.117Z,9.93
2018-03-27T17:04:32.573Z,9.98
2018-03-27T17:07:00.137Z,10.03
2018-03-27T17:09:27.594Z,10.03
2018-03-27T17:11:55.044Z,9.88
2018-03-27T17:14:22.553Z,9.93
2018-03-27T17:16:49.998Z,9.68
2018-03-27T17:19:17.933Z,9.83
2018-03-27T17:21:45.374Z,9.71
2018-03-27T17:24:12.823Z,9.79
2018-03-27T17:26:40.297Z,9.89
2018-03-27T17:29:07.745Z,9.79
2018-03-27T17:31:35.381Z,9.59
2018-03-27T17:34:02.830Z,9.45
2018-03-27T17:36:30.295Z,9.50
2018-03-27T17:38:57.765Z,9.49
2018-03-27T17:41:25.213Z,9.34
2018-03-27T17:43:53.382Z,9.38
2018-03-27T17:46:21.189Z,9.41
2018-03-27T17:48:48.637Z,9.35
2018-03-27T17:51:16.104Z,9.40
2018-03-27T17:53:43.561Z,9.37
2018-03-27T17:56:11.142Z,9.36
2018-03-27T17:58:38.589Z,9.28
2018-03-27T18:01:06.054Z,9.25
2018-03-27T18:03:33.538Z,9.27
2018-03-27T18:06:01.006Z,9.22
2018-03-27T18:08:28.507Z,9.15
2018-03-27T18:10:55.966Z,9.15
2018-03-27T18:13:23.437Z,9.08
2018-03-27T18:15:50.916Z,8.95
2018-03-27T18:18:18.362Z,8.91
2018-03-27T18:20:46.098Z,8.86
2018-03-27T18:23:13.546Z,8.75
2018-03-27T18:25:40.996Z,8.83
2018-03-27T18:28:08.469Z,8.66
2018-03-27T18:30:36.476Z,8.63
2018-03-27T18:33:04.072Z,8.66
2018-03-27T18:35:33.374Z,8.61
2018-03-27T18:38:00.848Z,8.61
2018-03-27T18:40:28.358Z,8.61
2018-03-27T18:42:55.820Z,8.60
2018-03-27T18:45:23.660Z,8.58
2018-03-27T18:47:51.118Z,8.46
2018-03-27T18:50:18.861Z,8.43
2018-03-27T18:52:46.338Z,8.56
2018-03-27T18:55:13.785Z,8.54
2018-03-27T18:57:41.278Z,8.44
2018-03-27T19:00:08.736Z,8.43
2018-03-27T19:02:36.198Z,8.21
2018-03-27T19:05:03.683Z,8.30
2018-03-27T19:07:31.134Z,8.41
2018-03-27T19:09:58.624Z,8.39
2018-03-27T19:12:26.079Z,8.44
2018-03-27T19:14:54.575Z,8.37
2018-03-27T19:17:22.056Z,8.25
2018-03-27T19:19:49.518Z,8.34
2018-03-27T19:22:17.006Z,8.28
2018-03-27T19:24:44.454Z,8.27
2018-03-27T19:27:11.898Z,8.31
2018-03-27T19:29:39.387Z,8.19
2018-03-27T19:32:06.862Z,8.34
2018-03-27T19:34:34.489Z,8.29
2018-03-27T19:37:01.950Z,8.36
2018-03-27T19:39:29.407Z,8.31
2018-03-27T19:41:57.691Z,8.28
2018-03-27T19:44:25.995Z,8.28
2018-03-27T19:46:53.487Z,8.11
2018-03-27T19:49:25.094Z,8.27
2018-03-27T19:51:53.535Z,8.28
2018-03-27T19:54:21.004Z,8.39
2018-03-27T19:56:48.523Z,8.30
2018-03-27T19:59:15.991Z,8.17
2018-03-27T20:01:43.433Z,8.27
2018-03-27T20:04:11.023Z,8.25
2018-03-27T20:06:39.683Z,8.16
2018-03-27T20:09:07.733Z,8.24
2018-03-27T20:11:35.205Z,8.17
2018-03-27T20:14:02.826Z,8.21
2018-03-27T20:16:31.071Z,8.16
2018-03-27T20:18:58.546Z,8.13
2018-03-27T20:21:26.001Z,8.17
2018-03-27T20:23:53.486Z,8.06
2018-03-27T20:26:20.934Z,8.14
2018-03-27T20:28:48.665Z,8.10
2018-03-27T20:31:16.137Z,8.11
2018-03-27T20:33:43.610Z,8.13
2018-03-27T20:36:11.078Z,8.20
2018-03-27T20:38:38.537Z,8.04
2018-03-27T20:41:06.138Z,8.21
2018-03-27T20:43:33.586Z,8.18
2018-03-27T20:46:01.046Z,8.25
2018-03-27T20:48:28.526Z,8.17
2018-03-27T20:50:55.982Z,8.15
2018-03-27T20:53:23.486Z,8.22
2018-03-27T20:55:50.930Z,8.17
2018-03-27T20:58:18.390Z,8.14
2018-03-27T21:00:47.134Z,8.10
2018-03-27T21:03:16.021Z,7.94
2018-03-27T21:05:43.574Z,8.19
2018-03-27T21:08:11.030Z,8.02
2018-03-27T21:10:38.493Z,8.10
2018-03-27T21:13:05.961Z,8.26
2018-03-27T21:15:33.418Z,8.07
2018-03-27T21:18:01.021Z,8.22
2018-03-27T21:20:28.474Z,8.27
2018-03-27T21:22:59.211Z,8.24
2018-03-27T21:25:26.706Z,8.21
2018-03-27T21:27:54.161Z,8.10
2018-03-27T21:30:21.645Z,8.22
2018-03-27T21:32:49.130Z,8.27
2018-03-27T21:35:16.609Z,8.23
2018-03-27T21:37:48.124Z,8.26
2018-03-27T21:40:16.059Z,8.17
2018-03-27T21:42:43.822Z,8.11
2018-03-27T21:45:11.273Z,8.15
2018-03-27T21:47:38.724Z,8.27
2018-03-27T21:50:06.210Z,8.24
2018-03-27T21:52:33.658Z,8.26
2018-03-27T21:55:03.858Z,8.26
2018-03-27T21:57:31.314Z,8.30
2018-03-27T21:59:58.753Z,8.29
2018-03-27T22:02:26.221Z,8.26
2018-03-27T22:04:53.689Z,8.18
2018-03-27T22:07:21.378Z,8.26
2018-03-27T22:09:48.832Z,8.22
2018-03-27T22:12:16.291Z,8.13
2018-03-27T22:14:43.753Z,7.96
2018-03-27T22:17:11.204Z,8.01
2018-03-27T22:19:38.668Z,8.08
2018-03-27T22:22:06.137Z,8.13
2018-03-27T22:24:33.627Z,8.14
2018-03-27T22:27:01.066Z,8.14
2018-03-27T22:29:28.713Z,8.16
2018-03-27T22:31:56.145Z,8.19
2018-03-27T22:34:23.586Z,8.10
2018-03-27T22:36:51.073Z,8.06
2018-03-27T22:39:18.565Z,8.13
2018-03-27T22:41:46.002Z,8.28
2018-03-27T22:44:13.770Z,8.45
2018-03-27T22:46:41.183Z,8.37
2018-03-27T22:49:08.617Z,8.38
2018-03-27T22:51:36.086Z,8.24
2018-03-27T22:54:03.581Z,8.23
2018-03-27T22:56:31.034Z,8.24
2018-03-27T22:58:58.802Z,8.17
2018-03-27T23:01:26.334Z,8.05
2018-03-27T23:03:53.809Z,8.04
2018-03-27T23:06:21.323Z,8.07
2018-03-27T23:08:48.757Z,8.07
2018-03-27T23:11:16.257Z,8.15
2018-03-27T23:13:43.874Z,8.16
2018-03-27T23:16:11.313Z,8.16
2018-03-27T23:18:38.761Z,8.13
2018-03-27T23:21:06.221Z,8.16
2018-03-27T23:23:33.654Z,8.07
2018-03-27T23:26:01.089Z,7.98
2018-03-27T23:28:28.707Z,8.09
2018-03-27T23:30:56.153Z,8.10
2018-03-27T23:33:23.609Z,7.92
2018-03-27T23:35:51.085Z,7.97
2018-03-27T23:38:18.539Z,7.96
2018-03-27T23:40:46.265Z,7.84
2018-03-27T23:43:13.778Z,7.76
2018-03-27T23:45:41.326Z,7.88
2018-03-27T23:48:08.795Z,7.85
2018-03-27T23:50:36.238Z,7.83
2018-03-27T23:53:03.901Z,7.86
2018-03-27T23:55:31.337Z,7.86
2018-03-27T23:57:58.781Z,7.87
